7W6

Hyde County Airport

Engelhard, North Carolina, USA
METAR K7W6 260335Z AUTO 00000KT 10SM SCT022 16/15 A2978 RMK AO2 T01550152
Observed Flight Rules
Apr-26 @ 03:35 UTC (15 minutes ago) Visual Flight Rules
Visibility Clouds
10 miles
  • Scattered at 2,200' AGL
Temperatures Readings
Current 16°C / 61°F
Dewpoint 15°C / 59°F
Humidity 94%
Altimeter 29.78" Hg
Pressure 1008 hPa
Elevation 2
METAR K7W6 260335Z AUTO 00000KT 10SM SCT022 16/15 A2978 RMK AO2 T01550152
Observed Flight Rules
Apr-26 @ 03:35 UTC
(15 minutes ago)
VFR
Clouds
  • Scattered at 2,200' AGL
Temperature Dewpoint
16°C / 61°F 15°C / 59°F
Humidity Altimeter Pressure
94% 29.78" Hg 1008 hPa